Latest Weather Observations for Giles*

IDD60801

Issued at 11:31 pm CST Tuesday 12 December 2017 (issued every 30 minutes, with the page automatically refreshed every 10 minutes)

About weather observations | Map of weather stations | Latest weather observations for NT | Other Formats
Station Details ID: 013017 Name: GILES METEOROLOGICAL OFFICE Lat: -25.03 Lon: 128.30 Height: 598.0 m
Data from the previous 72 hours. | See also: Recent months at Giles*

* Giles observations are collected in the South Australia time zone, which includes daylight saving in the summer period. Therefore, Rain since 9am value is with respect to South Australia local time.

Date/Time
CST
Temp
°C
App
Temp
°C
Dew
Point
°C
Rel
Hum
%
Delta-T
°C
Wind Press
QNH
hPa
Press
MSL
hPa
Rain since
9am
mm
Dir  Spd
km/h
Gust
km/h
Spd
kts
Gust
kts
12/11:30pm 28.4 24.9 7.1 26 11.7 ENE 15 19 8 10 1012.0 1007.4 0.0
12/11:00pm 28.6 25.2 7.5 26 11.7 ENE 15 19 8 10 1012.2 1007.6 0.0
12/10:30pm 28.5 25.0 7.3 26 11.7 ENE 15 17 8 9 1012.3 1007.7 0.0
12/10:00pm 28.8 25.3 7.0 25 12.0 ENE 15 17 8 9 1012.5 1007.9 0.0
12/09:30pm 28.6 25.5 7.2 26 11.8 E 13 15 7 8 1012.5 1007.9 0.0
12/09:00pm 29.1 25.9 6.9 24 12.2 E 13 15 7 8 1012.3 1007.7 0.0
12/08:30pm 29.8 27.4 7.0 24 12.6 ESE 9 13 5 7 1012.4 1007.8 0.0
12/08:00pm 31.3 29.2 6.8 21 13.6 ESE 7 9 4 5 1012.3 1007.7 0.0
12/07:30pm 32.7 30.0 5.8 18 14.8 SE 9 13 5 7 1012.2 1007.6 0.0
12/07:00pm 33.5 30.8 5.8 17 15.3 SSE 9 13 5 7 1012.0 1007.4 0.0
12/06:30pm 33.2 30.7 6.5 19 14.9 ENE 9 15 5 8 1011.7 1007.2 0.0
12/06:00pm 33.7 30.7 6.2 18 15.3 E 11 19 6 10 1011.7 1007.2 0.0
12/05:30pm 32.8 29.5 6.6 19 14.6 E 13 17 7 9 1011.7 1007.2 0.0
12/05:00pm 32.4 30.2 7.7 21 14.0 ESE 9 13 5 7 1012.2 1007.6 0.0
12/04:30pm 32.4 30.4 8.5 22 13.7 ESE 9 15 5 8 1012.6 1008.0 0.0
12/04:00pm 32.3 30.0 7.5 21 14.0 E 9 15 5 8 1012.8 1008.3 0.0
12/03:30pm 32.0 29.9 8.3 23 13.5 S 9 19 5 10 1013.5 1009.0 0.0
12/03:00pm 32.2 28.9 6.4 20 14.3 SSE 13 20 7 11 1013.9 1009.3 0.0
12/02:30pm 31.0 26.5 5.9 20 13.7 SSW 19 26 10 14 1014.4 1009.9 0.0
12/02:00pm 31.4 26.6 4.4 18 14.4 S 19 28 10 15 1014.8 1010.3 0.0
12/01:30pm 29.6 25.6 9.1 27 11.7 SSW 20 30 11 16 1015.4 1010.9 0.0
12/01:00pm 29.7 24.3 8.2 26 12.1 SSW 26 35 14 19 1016.0 1011.5 0.0
12/12:30pm 30.3 24.1 9.2 27 12.1 SW 32 43 17 23 1016.3 1011.8 0.0
12/12:00pm 31.5 25.0 9.1 25 12.9 SW 33 44 18 24 1016.3 1011.8 0.0
12/11:30am 32.7 26.1 4.4 17 15.2 SW 28 41 15 22 1016.4 1011.9 0.0
12/11:00am 33.8 27.1 -4.4 8 17.9 SW 22 32 12 17 1016.5 1012.0 0.0
12/10:30am 32.1 25.5 -9.7 6 17.7 SW 19 28 10 15 1016.7 1012.2 0.0
12/10:00am 31.5 24.9 -9.3 6 17.3 SW 19 26 10 14 1016.8 1012.3 0.0
12/09:30am 31.5 25.6 -9.3 6 17.3 SW 15 22 8 12 1016.6 1012.1 0.0
12/09:00am 29.7 24.5 -6.2 9 15.8 SW 13 20 7 11 1016.6 1012.1 0.0
12/08:30am 28.5 21.6 -6.1 10 15.1 WSW 22 37 12 20 1016.6 1012.1 0.0
12/08:00am 29.0 24.4 -4.4 11 15.1 ESE 11 15 6 8 1015.4 1010.9 0.0
12/07:30am 28.0 23.3 -5.3 11 14.7 SE 11 13 6 7 1015.0 1010.5 0.0
12/07:00am 26.5 21.8 -5.5 12 13.9 ESE 11 13 6 7 1014.8 1010.3 0.0
12/06:30am 23.1 17.7 -4.7 15 11.9 ESE 15 17 8 9 1014.4 1009.9 0.0
12/06:00am 22.3 17.2 -4.8 16 11.5 ESE 13 15 7 8 1014.2 1009.6 0.0
12/05:30am 22.7 17.8 -3.8 17 11.5 ESE 13 15 7 8 1013.9 1009.3 0.0
12/05:00am 22.3 17.3 -4.3 16 11.4 ESE 13 15 7 8 1013.6 1009.1 0.0
12/04:30am 22.1 17.9 -3.9 17 11.2 SE 9 9 5 5 1013.4 1008.9 0.0
12/04:00am 23.5 19.1 -2.3 18 11.6 E 11 15 6 8 1013.1 1008.6 0.0
12/03:30am 23.2 18.2 -4.4 15 11.9 ESE 13 13 7 7 1013.1 1008.6 0.0
12/03:00am 24.1 20.4 -4.5 14 12.4 E 6 9 3 5 1013.2 1008.7 0.0
12/02:30am 25.1 19.5 -5.9 12 13.2 E 15 17 8 9 1013.3 1008.8 0.0
12/02:00am 25.3 19.7 -6.4 12 13.4 ESE 15 20 8 11 1013.4 1008.9 0.0
12/01:30am 26.5 20.5 -6.6 11 14.1 E 17 20 9 11 1013.8 1009.2 0.0
12/01:00am 25.3 20.3 -4.3 14 13.0 ESE 13 17 7 9 1014.3 1009.7 0.0
12/12:30am 26.8 20.9 -5.2 12 14.0 E 17 20 9 11 1014.9 1010.4 0.0
12/12:00am 24.1 19.8 1.3 22 11.0 ESE 13 15 7 8 1015.4 1010.9 0.0
 
Date/Time
CST
Temp
°C
App
Temp
°C
Dew
Point
°C
Rel
Hum
%
Delta-T
°C
Wind Press
QNH
hPa
Press
MSL
hPa
Rain since
9am
mm
Dir  Spd
km/h
Gust
km/h
Spd
kts
Gust
kts
11/11:30pm 24.3 21.0 2.4 24 10.8 ESE 9 13 5 7 1015.8 1011.2 0.0
11/11:00pm 25.9 20.8 1.0 19 12.1 ESE 17 19 9 10 1015.9 1011.4 0.0
11/10:30pm 25.9 21.4 2.1 21 11.8 ESE 15 15 8 8 1015.8 1011.2 0.0
11/10:00pm 26.8 23.5 2.5 20 12.2 E 9 11 5 6 1015.9 1011.4 0.0
11/09:30pm 27.0 23.7 2.6 20 12.3 ESE 9 11 5 6 1015.7 1011.1 0.0
11/09:00pm 28.5 25.7 2.9 19 13.1 E 7 9 4 5 1015.6 1011.0 0.0
11/08:30pm 29.2 26.4 3.3 19 13.4 E 7 9 4 5 1015.6 1011.0 0.0
11/08:00pm 30.0 26.3 2.1 16 14.2 E 11 15 6 8 1015.4 1010.9 0.0
11/07:30pm 31.3 26.7 1.3 14 15.2 ESE 15 19 8 10 1015.4 1010.9 0.0
11/07:00pm 32.1 27.6 2.0 14 15.5 ESE 15 24 8 13 1015.3 1010.8 0.0
11/06:30pm 32.3 27.2 2.8 15 15.4 SE 19 26 10 14 1015.2 1010.7 0.0
11/06:00pm 31.6 26.9 1.2 14 15.4 ESE 15 22 8 12 1015.2 1010.7 0.0
11/05:30pm 31.4 27.2 1.9 15 15.1 SE 13 17 7 9 1015.6 1011.0 0.0
11/05:00pm 31.7 28.8 1.4 14 15.4 SSE 6 11 3 6 1015.7 1011.1 0.0
11/04:30pm 31.3 26.0 2.8 16 14.8 NW 20 44 11 24 1015.9 1011.4 0.0
11/04:00pm 32.3 28.2 -0.4 12 16.2 NW 11 19 6 10 1016.1 1011.6 0.0
11/03:30pm 33.3 28.7 -4.4 8 17.6 W 11 19 6 10 1016.4 1011.9 0.0
11/03:00pm 32.9 28.7 -4.1 9 17.3 W 9 19 5 10 1016.6 1012.1 0.0
11/02:30pm 33.2 29.2 -2.1 10 17.1 SE 9 15 5 8 1016.9 1012.4 0.0
11/02:00pm 32.5 27.8 -1.7 11 16.6 SSE 13 24 7 13 1017.3 1012.7 0.0
11/01:30pm 32.8 28.7 -0.5 12 16.5 S 11 20 6 11 1017.6 1013.1 0.0
11/01:00pm 33.3 29.9 -0.5 11 16.8 W 7 17 4 9 1018.2 1013.7 0.0
11/12:30pm 31.9 28.0 1.4 14 15.5 SSW 11 20 6 11 1018.7 1014.2 0.0
11/12:00pm 31.5 26.7 0.4 13 15.5 SW 15 24 8 13 1019.5 1015.0 0.0
11/11:30am 31.3 28.1 0.8 14 15.3 SE 7 17 4 9 1019.6 1015.1 0.0
11/11:00am 30.9 26.5 0.6 14 15.1 SSE 13 19 7 10 1020.1 1015.6 0.0
11/10:30am 30.1 26.2 3.3 18 13.9 SW 13 22 7 12 1020.3 1015.8 0.0
11/10:00am 29.3 26.4 8.0 26 11.9 S 13 20 7 11 1020.6 1016.2 0.0
11/09:30am 28.7 26.6 9.7 30 10.9 SSW 11 19 6 10 1020.7 1016.3 0.0
11/09:00am 28.2 25.9 9.1 30 10.8 SSW 11 15 6 8 1020.9 1016.4 0.0
11/08:30am 27.6 25.7 10.4 34 9.9 S 11 17 6 9 1020.9 1016.4 0.0
11/08:00am 26.4 25.7 11.9 40 8.5 SSW 7 11 4 6 1020.9 1016.4 0.0
11/07:30am 25.0 24.9 12.0 44 7.6 SSW 4 9 2 5 1020.1 1015.6 0.0
11/07:00am 24.3 23.1 11.7 45 7.3 WSW 9 13 5 7 1019.6 1015.1 0.0
11/06:30am 24.0 23.2 11.1 44 7.4 W 6 7 3 4 1019.2 1014.7 0.0
11/06:00am 24.3 23.0 11.1 43 7.6 W 9 13 5 7 1018.5 1014.0 0.0
11/05:30am 24.5 23.2 9.3 38 8.5 NW 6 7 3 4 1017.9 1013.4 0.0
11/05:00am 24.8 23.4 8.7 36 8.9 WSW 6 9 3 5 1017.7 1013.2 0.0
11/04:30am 24.9 21.4 -1.2 18 12.1 SSW 7 11 4 6 1017.4 1012.8 0.0
11/04:00am 25.6 21.6 -2.1 16 12.7 SE 9 9 5 5 1016.9 1012.4 0.0
11/03:30am 26.4 22.9 -2.8 14 13.3 SSE 6 9 3 5 1016.5 1012.0 0.0
11/03:00am 27.9 25.4 -0.8 15 13.7 NNE 2 7 1 4 1016.4 1011.9 0.0
11/02:30am 27.6 23.8 -3.4 13 14.1 WSW 7 9 4 5 1016.4 1011.9 0.0
11/02:00am 28.0 23.1 -3.8 12 14.4 W 13 15 7 8 1016.6 1012.1 0.0
11/01:30am 29.0 25.9 0.2 15 14.1 E 6 11 3 6 1016.7 1012.2 0.0
11/01:00am 29.6 23.4 -4.8 10 15.5 E 19 26 10 14 1016.4 1011.9 0.0
11/12:30am 30.3 23.4 -5.9 9 16.1 ESE 22 30 12 16 1016.4 1011.9 0.0
11/12:00am 30.5 24.7 -4.7 10 16.0 ESE 17 24 9 13 1016.8 1012.3 0.0
 
Date/Time
CST
Temp
°C
App
Temp
°C
Dew
Point
°C
Rel
Hum
%
Delta-T
°C
Wind Press
QNH
hPa
Press
MSL
hPa
Rain since
9am
mm
Dir  Spd
km/h
Gust
km/h
Spd
kts
Gust
kts
10/11:30pm 31.1 24.9 -4.4 10 16.3 ESE 19 24 10 13 1017.0 1012.5 0.0
10/11:00pm 31.3 25.2 -4.3 10 16.4 ESE 19 26 10 14 1017.1 1012.6 0.0
10/10:30pm 31.5 25.4 -4.2 9 16.5 ESE 19 26 10 14 1017.1 1012.6 0.0
10/10:00pm 32.0 25.2 -4.8 9 16.9 SE 22 32 12 17 1016.9 1012.4 0.0
10/09:30pm 32.2 25.9 -4.2 9 16.9 SE 20 32 11 17 1016.6 1012.1 0.0
10/09:00pm 32.5 25.9 -3.7 9 17.0 SE 22 32 12 17 1016.4 1011.9 0.0
10/08:30pm 32.8 26.3 -2.3 10 16.9 SE 22 32 12 17 1016.5 1012.0 0.0
10/08:00pm 33.1 26.7 -1.9 10 17.0 SE 22 32 12 17 1016.2 1011.7 0.0
10/07:30pm 34.0 27.4 -3.2 9 17.8 SE 22 33 12 18 1015.8 1011.2 0.0
10/07:00pm 34.4 28.5 -2.5 9 17.9 SE 19 24 10 13 1015.6 1011.0 0.0
10/06:30pm 34.9 28.7 -3.5 8 18.4 SE 20 28 11 15 1015.2 1010.7 0.0
10/06:00pm 35.6 29.6 -2.8 8 18.7 SE 19 30 10 16 1015.0 1010.5 0.0
10/05:30pm 36.3 29.2 -4.3 7 19.4 SE 24 33 13 18 1014.7 1010.2 0.0
10/05:00pm 36.3 28.7 -2.1 8 19.0 S 28 37 15 20 1014.7 1010.2 0.0
10/04:30pm 34.9 28.0 -2.4 9 18.2 SSW 24 32 13 17 1015.4 1010.9 0.0
10/04:00pm 34.5 27.0 -1.7 10 17.8 SSW 28 41 15 22 1015.8 1011.2 0.0
10/03:30pm 34.3 27.2 -1.3 10 17.6 SSW 26 35 14 19 1016.1 1011.6 0.0
10/03:00pm 35.6 31.3 -1.3 9 18.4 WNW 11 15 6 8 1016.2 1011.7 0.0
10/02:30pm 36.0 30.4 -2.6 8 18.9 NW 17 24 9 13 1016.2 1011.7 0.0
10/02:00pm 37.2 31.5 -3.5 7 19.8 NNE 17 28 9 15 1016.3 1011.8 0.0
10/01:30pm 38.7 32.6 -3.9 6 20.8 NE 19 30 10 16 1016.4 1011.9 0.0
10/01:00pm 38.3 31.5 -5.4 6 20.8 N 22 35 12 19 1016.5 1012.0 0.0
10/12:30pm 36.7 29.9 -4.7 7 19.7 NNE 22 35 12 19 1017.0 1012.5 0.0
10/12:00pm 36.4 29.3 -4.7 7 19.5 NNE 24 35 13 19 1017.5 1013.0 0.0
10/11:30am 35.5 28.6 -2.7 8 18.6 NE 24 41 13 22 1017.8 1013.3 0.0
10/11:00am 34.2 27.0 -4.9 8 18.2 NE 24 37 13 20 1018.2 1013.7 0.0
10/10:30am 33.7 26.2 -4.9 8 17.9 ENE 26 37 14 20 1018.3 1013.8 0.0
10/10:00am 32.8 25.6 -5.7 8 17.5 NE 24 39 13 21 1018.6 1014.1 0.0
10/09:30am 31.7 22.8 -7.2 7 17.1 E 32 43 17 23 1018.7 1014.2 0.0
10/09:00am 31.0 23.6 -7.2 8 16.7 ENE 24 33 13 18 1018.7 1014.2 0.0
10/08:30am 30.2 23.7 -5.7 9 16.0 E 20 28 11 15 1018.7 1014.2 0.0
10/08:00am 29.0 22.5 -6.2 9 15.4 ENE 20 30 11 16 1018.3 1013.8 0.0
10/07:30am 27.8 21.0 -5.5 11 14.6 E 22 32 12 17 1017.8 1013.3 0.0
10/07:00am 26.6 18.6 -5.9 11 14.0 E 28 37 15 20 1017.1 1012.6 0.0
10/06:30am 25.7 18.9 -5.3 12 13.4 E 22 35 12 19 1016.7 1012.2 0.0
10/06:00am 25.4 18.7 -4.5 13 13.1 E 22 35 12 19 1016.2 1011.7 0.0
10/05:30am 25.7 18.2 -4.2 13 13.2 E 26 33 14 18 1015.8 1011.2 0.0
10/05:00am 26.1 19.0 -4.1 13 13.4 E 24 35 13 19 1015.7 1011.1 0.0
10/04:30am 26.7 19.5 -4.9 12 13.9 E 24 35 13 19 1015.6 1011.0 0.0
10/04:00am 26.6 20.5 -3.7 13 13.6 E 19 24 10 13 1015.3 1010.8 0.0
10/03:30am 26.7 20.7 -2.9 14 13.5 ESE 19 26 10 14 1015.2 1010.7 0.0
10/03:00am 27.3 21.2 -2.3 14 13.7 E 20 32 11 17 1014.9 1010.4 0.0
10/02:30am 27.4 21.4 -1.6 15 13.6 E 20 28 11 15 1014.7 1010.2 0.0
10/02:00am 28.1 21.7 -1.6 14 14.0 E 22 30 12 16 1014.9 1010.4 0.0
10/01:30am 28.7 22.3 -1.4 14 14.3 E 22 33 12 18 1015.3 1010.8 0.0
10/01:00am 28.6 22.8 -0.3 15 14.0 E 20 30 11 16 1015.4 1010.9 0.0
10/12:30am 28.7 23.0 0.3 16 13.9 E 20 28 11 15 1015.7 1011.1 0.0
10/12:00am 27.5 22.5 1.5 18 12.9 ESE 17 20 9 11 1015.9 1011.4 0.0
 
Date/Time
CST
Temp
°C
App
Temp
°C
Dew
Point
°C
Rel
Hum
%
Delta-T
°C
Wind Press
QNH
hPa
Press
MSL
hPa
Rain since
9am
mm
Dir  Spd
km/h
Gust
km/h
Spd
kts
Gust
kts
09/11:30pm 30.3 24.6 0.5 14 14.8 ENE 20 30 11 16 1016.0 1011.5 0.0
09/11:00pm 29.9 24.5 1.1 15 14.4 E 19 26 10 14 1016.1 1011.6 0.0

Other Formats:

Comma delimited format used in spreadsheet applications
http://www.bom.gov.au/fwo/IDD60801/IDD60801.94461.axf

JavaScript Object Notation format (JSON) in row-major order
http://www.bom.gov.au/fwo/IDD60801/IDD60801.94461.json